Flight Track Log - Related Links

Times and Time Zones

All times are in EDT time to prevent confusion due to time zone crossing. See the SWA2236 flight status page for this flight to view local times or setup timezone preferences in your user account.

Time Position Orientation Groundspeed Altitude Reporting Facility
EDT Latitude Longitude Course Direction KTS MPH feet Rate Location/Type
Tue 11:26:35 PM 39.1833 -76.7167 143° Southeast 160 184 1,800  Level Potomac TRACON
Tue 11:28:43 PM 39.1233 -76.6592 143° Southeast 106 122 6,400 2,635 Climbing Washington Center
Tue 11:29:44 PM 39.1325 -76.5522 84° East 211 243 10,100 2,924 Climbing Washington Center
Tue 11:30:42 PM 39.1397 -76.4239 86° East 293 337 12,200 2,300 Climbing Washington Center
Tue 11:31:44 PM 39.1425 -76.3142 88° East 332 382 14,700 2,850 Climbing Washington Center
Tue 11:32:42 PM 39.1622 -76.1378 82° East 382 440 17,900 3,102 Climbing Washington Center
Tue 11:33:42 PM 39.1794 -75.9933 81° East 393 452 20,800 2,529 Climbing Washington Center
Tue 11:34:43 PM 39.2131 -75.8489 73° East 406 467 23,000 1,967 Climbing Washington Center
Tue 11:35:44 PM 39.3008 -75.7392 44° Northeast 406 467 24,800 1,866 Climbing Washington Center
Tue 11:36:42 PM 39.3906 -75.6239 45° Northeast 424 488 26,700 2,017 Climbing Washington Center
Tue 11:37:43 PM 39.4781 -75.5108 45° Northeast 437 503 28,800 730 Climbing Washington Center
Tue 11:39:51 PM 39.6694 -75.2614 45° Northeast 443 510 29,000 64 Climbing New York Center
Tue 11:40:51 PM 39.7467 -75.1475 49° Northeast 454 522 29,000  Level New York Center
Tue 11:41:53 PM 39.8325 -75.0258 47° Northeast 454 522 29,000  Level New York Center
Tue 11:42:51 PM 39.9161 -74.9064 48° Northeast 454 522 29,000  Level New York Center
Tue 11:43:52 PM 40.0375 -74.8294 26° Northeast 434 499 29,000  Level New York Center
Tue 11:44:51 PM 40.1450 -74.7897 16° North 430 495 29,000  Level New York Center
Tue 11:45:51 PM 40.2656 -74.7450 16° North 445 512 29,000  Level New York Center
Tue 11:46:51 PM 40.3878 -74.7031 15° North 445 512 29,000  Level New York Center
Tue 11:47:52 PM 40.5017 -74.6603 16° North 438 504 29,000  Level New York Center
Tue 11:48:51 PM 40.6219 -74.6153 16° North 438 504 29,000  Level New York Center
Tue 11:50:41 PM 40.8367 -74.5333 16° North 429 494 29,000  Level Boston Center
Tue 11:51:41 PM 40.9564 -74.4903 15° North 429 494 29,000  Level Boston Center
Tue 11:52:41 PM 41.0864 -74.4422 16° North 429 494 29,000  Level Boston Center
Tue 11:53:41 PM 41.2039 -74.3989 16° North 436 502 29,000 -1,000 Level Boston Center
Tue 11:54:41 PM 41.3233 -74.3556 15° North 441 507 27,000 -2,200 Descending Boston Center
Tue 11:55:41 PM 41.4344 -74.3092 17° North 426 490 24,600 -1,500 Descending Boston Center
Tue 11:56:41 PM 41.5458 -74.2681 15° North 419 482 24,000 -950 Descending Boston Center
Tue 11:57:41 PM 41.6547 -74.2294 15° North 419 482 22,700 -1,800 Descending Boston Center
Tue 11:58:41 PM 41.7617 -74.1853 17° North 407 468 20,400 -1,750 Descending Boston Center
Tue 11:59:41 PM 41.8517 -74.1542 14° North 392 451 19,200 -1,838 Descending Boston Center
Wed 12:00:32 AM 41.9419 -74.1203 16° North 381 438 17,000 -2,350 Descending Boston Center
Wed 12:01:41 AM 42.0614 -74.0731 16° North 377 434 14,500 -2,233 Descending Boston Center
Wed 12:02:41 AM 42.1578 -74.0336 17° North 367 422 12,200 -2,100 Descending Boston Center
Wed 12:03:41 AM 42.2522 -73.9967 16° North 356 410 10,300 -1,364 Descending Boston Center
Wed 12:04:53 AM 42.3547 -73.9628 14° North 308 354 9,200 -1,091 Descending Boston Center
Wed 12:05:53 AM 42.4381 -73.9650 359° North 296 341 7,900 -1,438 Descending Boston Center
Wed 12:06:54 AM 42.5214 -73.9669 359° North 294 338 6,300 -1,537 Descending Boston Center
Wed 12:07:54 AM 42.6025 -73.9744 356° North 294 338 4,800 -1,140 Descending Boston Center
Wed 12:08:55 AM 42.6817 -73.9764 359° North 288 331 4,000 -836 Descending Boston Center
Wed 12:09:56 AM 42.7608 -73.9814 357° North 282 325 3,100 -496 Descending Boston Center
Wed 12:10:56 AM 42.8322 -73.9575 14° North 251 289 3,000 -347 Descending Boston Center
Wed 12:11:57 AM 42.8744 -73.8992 45° Northeast 215 247 2,400 -496 Descending Boston Center
Wed 12:12:57 AM 42.8586 -73.8364 109° East 163 188 2,000 -446 Descending Boston Center
Wed 12:13:58 AM 42.8236 -73.8131 154° Southeast 138 159 1,500 -492 Descending Boston Center

Login

Don't have an account? Register now (free) for customized features, flight alerts, and more!